createdAt,value
2022-11-06T00:00:14.536Z,2.70
2022-11-06T00:03:05.051Z,2.80
2022-11-06T00:06:13.217Z,3.00
2022-11-06T00:09:04.820Z,2.80
2022-11-06T00:11:54.079Z,2.80
2022-11-06T00:14:43.455Z,2.90
2022-11-06T00:17:32.917Z,2.30
2022-11-06T00:20:22.494Z,3.00
2022-11-06T00:23:11.870Z,2.80
2022-11-06T00:26:04.454Z,3.40
2022-11-06T00:28:54.581Z,3.20
2022-11-06T00:31:43.608Z,3.20
2022-11-06T00:34:33.061Z,3.70
2022-11-06T00:37:22.655Z,3.70
2022-11-06T00:40:13.855Z,3.70
2022-11-06T00:43:03.279Z,3.40
2022-11-06T00:45:52.662Z,2.50
2022-11-06T00:48:42.909Z,2.70
2022-11-06T00:51:35.135Z,2.60
2022-11-06T00:54:24.512Z,2.90
2022-11-06T00:57:13.874Z,6.70
2022-11-06T01:00:03.852Z,5.60
2022-11-06T01:02:53.497Z,4.00
2022-11-06T01:05:43.017Z,3.70
2022-11-06T01:08:33.233Z,3.60
2022-11-06T01:11:24.994Z,3.50
2022-11-06T01:14:16.423Z,2.10
2022-11-06T01:17:05.519Z,2.10
2022-11-06T01:19:55.003Z,2.40
2022-11-06T01:22:44.461Z,2.50
2022-11-06T01:25:33.868Z,3.00
2022-11-06T01:28:23.526Z,3.30
2022-11-06T01:31:16.438Z,2.30
2022-11-06T01:34:06.655Z,2.10
2022-11-06T01:36:55.647Z,2.20
2022-11-06T01:39:45.132Z,2.00
2022-11-06T01:42:34.586Z,2.20
2022-11-06T01:45:35.308Z,1.90
2022-11-06T01:48:26.451Z,1.70
2022-11-06T01:51:16.118Z,2.20
2022-11-06T01:54:08.468Z,2.10
2022-11-06T01:57:00.008Z,2.00
2022-11-06T01:59:53.715Z,2.20
2022-11-06T02:02:43.698Z,2.40
2022-11-06T02:05:32.902Z,2.10
2022-11-06T02:08:23.662Z,1.90
2022-11-06T02:11:13.182Z,2.20
2022-11-06T02:14:09.205Z,2.30
2022-11-06T02:17:04.718Z,2.00
2022-11-06T02:20:05.697Z,2.40
2022-11-06T02:23:15.691Z,1.90
2022-11-06T02:26:21.691Z,1.50
2022-11-06T02:29:20.065Z,2.00
2022-11-06T02:32:14.511Z,2.00
2022-11-06T02:35:12.754Z,2.10
2022-11-06T02:38:06.996Z,1.90
2022-11-06T02:41:02.433Z,2.10
2022-11-06T02:43:56.924Z,1.90
2022-11-06T02:46:51.348Z,1.80
2022-11-06T02:49:44.119Z,2.30
2022-11-06T02:52:37.652Z,2.00
2022-11-06T02:55:31.422Z,2.00
2022-11-06T02:58:25.484Z,1.70
2022-11-06T03:01:20.534Z,1.40
2022-11-06T03:04:16.638Z,1.50
2022-11-06T03:07:14.625Z,1.30
2022-11-06T03:10:05.015Z,1.40
2022-11-06T03:12:59.134Z,1.50
2022-11-06T03:16:00.576Z,1.60
2022-11-06T03:18:58.432Z,1.50
2022-11-06T03:21:57.165Z,1.30
2022-11-06T03:24:52.939Z,1.50
2022-11-06T03:27:52.548Z,1.60
2022-11-06T03:30:49.032Z,1.50
2022-11-06T03:33:44.389Z,1.80
2022-11-06T03:36:36.785Z,1.90
2022-11-06T03:39:31.330Z,1.40
2022-11-06T03:42:24.083Z,1.90
2022-11-06T03:45:18.107Z,1.70
2022-11-06T03:48:14.032Z,1.50
2022-11-06T03:51:09.431Z,1.40
2022-11-06T03:54:02.595Z,1.30
2022-11-06T03:56:56.910Z,2.20
2022-11-06T03:59:51.136Z,1.70
2022-11-06T04:02:43.787Z,1.50
2022-11-06T04:05:38.203Z,1.60
2022-11-06T04:08:46.961Z,1.30
2022-11-06T04:11:57.471Z,1.70
2022-11-06T04:17:39.491Z,0.90
2022-11-06T04:20:55.763Z,1.00
2022-11-06T04:24:19.579Z,0.90
2022-11-06T04:27:23.585Z,0.80
2022-11-06T04:30:15.011Z,1.10
2022-11-06T04:33:10.385Z,1.00
2022-11-06T04:36:08.518Z,0.70
2022-11-06T04:39:05.040Z,0.80
2022-11-06T04:42:02.190Z,0.90
2022-11-06T04:44:58.244Z,0.80
2022-11-06T04:47:48.110Z,0.90
2022-11-06T04:50:41.531Z,0.90
2022-11-06T04:53:32.260Z,1.00
2022-11-06T04:56:29.229Z,0.90
2022-11-06T04:59:19.587Z,1.00
2022-11-06T05:02:10.049Z,0.80
2022-11-06T05:07:47.917Z,0.80
2022-11-06T05:10:37.419Z,1.70
2022-11-06T05:13:26.900Z,0.80
2022-11-06T05:16:16.403Z,0.90
2022-11-06T05:19:05.818Z,1.00
2022-11-06T05:22:13.452Z,0.90
2022-11-06T05:25:03.011Z,0.80
2022-11-06T05:27:52.549Z,0.80
2022-11-06T05:30:42.017Z,0.50
2022-11-06T05:33:31.646Z,0.80
2022-11-06T05:36:21.115Z,1.00
2022-11-06T05:39:10.880Z,0.80
2022-11-06T05:42:00.378Z,1.00
2022-11-06T05:44:49.869Z,1.10
2022-11-06T05:47:41.749Z,1.30
2022-11-06T05:50:31.183Z,1.30
2022-11-06T05:53:26.287Z,1.10
2022-11-06T05:56:15.739Z,1.10
2022-11-06T05:59:05.253Z,1.20
2022-11-06T06:01:54.809Z,0.90
2022-11-06T06:04:44.421Z,1.40
2022-11-06T06:07:34.606Z,1.10
2022-11-06T06:10:24.058Z,1.60
2022-11-06T06:13:14.833Z,1.30
2022-11-06T06:18:52.640Z,1.40
2022-11-06T06:21:42.141Z,1.60
2022-11-06T06:24:31.735Z,1.80
2022-11-06T06:27:21.198Z,1.40
2022-11-06T06:30:12.854Z,1.60
2022-11-06T06:33:06.586Z,1.60
2022-11-06T06:35:55.801Z,1.80
2022-11-06T06:38:45.228Z,1.80
2022-11-06T06:41:34.658Z,1.30
2022-11-06T06:44:24.095Z,1.80
2022-11-06T06:47:16.334Z,1.50
2022-11-06T06:50:07.134Z,1.90
2022-11-06T06:52:57.927Z,1.40
2022-11-06T06:55:47.123Z,1.60
2022-11-06T06:58:36.704Z,1.60
2022-11-06T07:01:26.355Z,1.80
2022-11-06T07:04:15.990Z,1.60
2022-11-06T07:07:05.449Z,2.00
2022-11-06T07:09:54.928Z,1.90
2022-11-06T07:12:44.466Z,1.40
2022-11-06T07:15:34.092Z,1.80
2022-11-06T07:18:24.286Z,1.90
2022-11-06T07:21:14.208Z,1.70
2022-11-06T07:24:03.986Z,1.80
2022-11-06T07:26:53.531Z,1.90
2022-11-06T07:29:43.001Z,2.10
2022-11-06T07:32:32.875Z,1.90
2022-11-06T07:35:22.406Z,5.00
2022-11-06T07:38:12.146Z,3.50
2022-11-06T07:41:04.468Z,4.20
2022-11-06T07:43:54.038Z,4.50
2022-11-06T07:46:43.519Z,2.10
2022-11-06T07:49:34.074Z,2.00
2022-11-06T07:52:23.632Z,1.70
2022-11-06T07:55:13.084Z,2.90
2022-11-06T07:58:02.705Z,2.80
2022-11-06T08:00:54.312Z,2.30
2022-11-06T08:03:43.356Z,2.90
2022-11-06T08:06:32.863Z,2.30
2022-11-06T08:09:24.504Z,2.70
2022-11-06T08:12:14.530Z,1.80
2022-11-06T08:15:04.667Z,1.90
2022-11-06T08:17:54.144Z,2.30
2022-11-06T08:20:43.629Z,1.80
2022-11-06T08:23:33.401Z,2.20
2022-11-06T08:26:22.985Z,1.60
2022-11-06T08:29:12.540Z,2.10
2022-11-06T08:32:01.930Z,1.70
2022-11-06T08:34:54.010Z,1.60
2022-11-06T08:37:43.420Z,1.80
2022-11-06T08:40:33.393Z,2.00
2022-11-06T08:43:25.820Z,2.10
2022-11-06T08:46:14.851Z,1.50
2022-11-06T08:49:04.272Z,1.80
2022-11-06T08:51:54.193Z,1.60
2022-11-06T08:54:43.836Z,1.60
2022-11-06T08:57:33.314Z,1.80
2022-11-06T09:00:23.536Z,1.80
2022-11-06T09:03:15.115Z,2.20
2022-11-06T09:06:08.059Z,2.20
2022-11-06T09:08:58.046Z,1.90
2022-11-06T09:11:47.545Z,1.80
2022-11-06T09:14:37.079Z,2.00
2022-11-06T09:17:26.726Z,1.90
2022-11-06T09:20:18.326Z,2.10
2022-11-06T09:23:09.519Z,1.90
2022-11-06T09:25:59.162Z,2.40
2022-11-06T09:28:48.685Z,2.00
2022-11-06T09:31:38.379Z,1.90
2022-11-06T09:34:27.784Z,1.60
2022-11-06T09:37:17.218Z,2.20
2022-11-06T09:40:13.621Z,1.90
2022-11-06T09:43:12.274Z,2.00
2022-11-06T09:46:09.118Z,1.90
2022-11-06T09:49:04.675Z,2.40
2022-11-06T09:52:02.409Z,2.30
2022-11-06T09:54:58.189Z,3.40
2022-11-06T09:57:55.483Z,2.60
2022-11-06T10:00:44.873Z,2.30
2022-11-06T10:03:43.718Z,3.30
2022-11-06T10:06:33.744Z,2.70
2022-11-06T10:09:23.139Z,2.10
2022-11-06T10:12:23.082Z,2.70
2022-11-06T10:15:22.261Z,2.10
2022-11-06T10:18:21.389Z,2.00
2022-11-06T10:21:15.785Z,2.20
2022-11-06T10:24:16.804Z,2.40
2022-11-06T10:27:15.201Z,2.60
2022-11-06T10:30:10.670Z,2.30
2022-11-06T10:33:16.668Z,2.10
2022-11-06T10:36:11.453Z,2.00
2022-11-06T10:39:01.491Z,1.80
2022-11-06T10:42:03.120Z,2.10
2022-11-06T10:44:57.058Z,1.90
2022-11-06T10:47:51.506Z,1.60
2022-11-06T10:50:51.055Z,2.30
2022-11-06T10:53:52.410Z,1.70
2022-11-06T10:56:56.553Z,2.10
2022-11-06T10:59:45.672Z,2.10
2022-11-06T11:02:39.952Z,2.40
2022-11-06T11:05:39.392Z,1.60
2022-11-06T11:08:41.514Z,2.00
2022-11-06T11:11:30.656Z,2.70
2022-11-06T11:14:26.377Z,2.00
2022-11-06T11:17:21.126Z,2.10
2022-11-06T11:20:31.109Z,2.10
2022-11-06T11:29:18.686Z,2.10
2022-11-06T11:32:08.437Z,2.40
2022-11-06T11:37:47.745Z,2.40
2022-11-06T11:40:39.210Z,2.70
2022-11-06T11:43:29.647Z,1.90
2022-11-06T11:46:20.716Z,2.10
2022-11-06T11:49:27.367Z,2.10
2022-11-06T11:52:21.003Z,1.90
2022-11-06T11:55:17.089Z,1.50
2022-11-06T11:58:19.086Z,1.70
2022-11-06T12:01:08.743Z,1.40
2022-11-06T12:03:58.283Z,1.70
2022-11-06T12:06:58.671Z,1.70
2022-11-06T12:09:48.154Z,1.40
2022-11-06T12:12:37.983Z,1.60
2022-11-06T12:15:30.301Z,1.60
2022-11-06T12:18:22.553Z,1.40
2022-11-06T12:21:18.508Z,1.40
2022-11-06T12:24:12.367Z,1.60
2022-11-06T12:27:06.863Z,1.40
2022-11-06T12:30:04.816Z,1.40
2022-11-06T12:33:06.200Z,1.30
2022-11-06T12:36:02.541Z,1.30
2022-11-06T12:38:55.455Z,1.40
2022-11-06T12:41:48.915Z,1.40
2022-11-06T12:44:38.715Z,1.50
2022-11-06T12:47:40.454Z,1.60
2022-11-06T12:50:36.931Z,1.90
2022-11-06T12:53:41.826Z,1.80
2022-11-06T12:56:43.045Z,1.40
2022-11-06T12:59:45.187Z,1.30
2022-11-06T13:02:55.955Z,2.00
2022-11-06T13:05:54.397Z,1.50
2022-11-06T13:08:54.495Z,1.50
2022-11-06T13:11:55.366Z,1.60
2022-11-06T13:14:55.588Z,2.00
2022-11-06T13:17:52.248Z,1.60
2022-11-06T13:20:49.407Z,1.50
2022-11-06T13:23:43.175Z,1.60
2022-11-06T13:26:40.381Z,1.60
2022-11-06T13:29:30.778Z,1.40
2022-11-06T13:32:24.993Z,1.60
2022-11-06T13:35:19.427Z,2.00
2022-11-06T13:38:14.672Z,1.50
2022-11-06T13:41:10.739Z,3.00
2022-11-06T13:44:03.074Z,1.60
2022-11-06T13:47:02.645Z,1.30
2022-11-06T13:50:01.975Z,1.50
2022-11-06T13:52:57.979Z,1.80
2022-11-06T13:55:59.689Z,1.40
2022-11-06T13:59:20.069Z,1.50
2022-11-06T14:02:30.521Z,1.70
2022-11-06T14:05:46.851Z,1.40
2022-11-06T14:08:41.936Z,2.20
2022-11-06T14:11:33.472Z,2.80
2022-11-06T14:14:28.235Z,2.40
2022-11-06T14:17:23.688Z,3.10
2022-11-06T14:20:28.733Z,2.10
2022-11-06T14:23:52.620Z,2.70
2022-11-06T14:26:43.386Z,2.20
2022-11-06T14:29:57.245Z,2.30
2022-11-06T14:32:48.063Z,2.30
2022-11-06T14:35:52.424Z,2.40
2022-11-06T14:38:42.516Z,2.30
2022-11-06T14:42:05.130Z,1.40
2022-11-06T14:44:56.954Z,1.70
2022-11-06T14:47:55.968Z,1.80
2022-11-06T14:50:49.899Z,1.70
2022-11-06T14:53:47.746Z,2.20
2022-11-06T14:56:38.923Z,1.40
2022-11-06T14:59:34.701Z,0.80
2022-11-06T15:02:28.537Z,1.00
2022-11-06T15:05:20.128Z,3.20
2022-11-06T15:08:09.206Z,7.40
2022-11-06T15:10:58.891Z,5.60
2022-11-06T15:13:48.274Z,3.20
2022-11-06T15:16:40.614Z,2.30
2022-11-06T15:19:33.958Z,2.20
2022-11-06T15:22:28.571Z,1.50
2022-11-06T15:25:23.775Z,2.20
2022-11-06T15:28:18.225Z,3.00
2022-11-06T15:31:13.811Z,2.50
2022-11-06T15:34:07.050Z,3.90
2022-11-06T15:37:10.760Z,7.30
2022-11-06T15:40:02.817Z,6.80
2022-11-06T15:42:52.406Z,6.60
2022-11-06T15:45:42.047Z,5.00
2022-11-06T15:48:31.671Z,4.00
2022-11-06T15:51:24.015Z,6.40
2022-11-06T15:54:31.570Z,5.80
2022-11-06T15:57:24.141Z,5.00
2022-11-06T16:00:20.881Z,6.60
2022-11-06T16:03:15.858Z,4.60
2022-11-06T16:06:06.011Z,5.60
2022-11-06T16:08:57.067Z,3.30
2022-11-06T16:11:48.569Z,4.30
2022-11-06T16:14:40.821Z,4.50
2022-11-06T16:17:30.226Z,2.80
2022-11-06T16:20:19.875Z,2.60
2022-11-06T16:23:14.530Z,2.00
2022-11-06T16:26:08.251Z,2.30
2022-11-06T16:28:57.956Z,3.20
2022-11-06T16:31:48.398Z,3.20
2022-11-06T16:34:43.522Z,3.50
2022-11-06T16:37:39.047Z,4.20
2022-11-06T16:40:51.042Z,2.90
2022-11-06T16:43:40.535Z,3.00
2022-11-06T16:47:14.027Z,3.30
2022-11-06T16:50:24.978Z,2.90
2022-11-06T16:53:19.700Z,2.70
2022-11-06T16:56:09.378Z,2.90
2022-11-06T16:59:04.951Z,3.30
2022-11-06T17:01:54.362Z,3.00
2022-11-06T17:04:43.897Z,3.40
2022-11-06T17:07:33.742Z,5.20
2022-11-06T17:10:36.308Z,7.10
2022-11-06T17:13:28.971Z,7.90
2022-11-06T17:16:20.536Z,14.30
2022-11-06T17:19:09.605Z,8.10
2022-11-06T17:21:59.262Z,6.30
2022-11-06T17:24:48.956Z,5.40
2022-11-06T17:27:38.525Z,5.10
2022-11-06T17:30:28.210Z,6.90
2022-11-06T17:33:17.708Z,9.00
2022-11-06T17:36:12.722Z,11.00
2022-11-06T17:39:01.808Z,9.40
2022-11-06T17:41:53.030Z,8.40
2022-11-06T17:44:42.363Z,11.50
2022-11-06T17:47:34.147Z,7.40
2022-11-06T17:50:23.708Z,6.70
2022-11-06T17:53:13.487Z,8.40
2022-11-06T17:56:05.996Z,6.80
2022-11-06T17:58:55.364Z,7.90
2022-11-06T18:01:47.056Z,6.00
2022-11-06T18:04:39.091Z,5.20
2022-11-06T18:07:28.513Z,3.70
2022-11-06T18:10:18.174Z,2.70
2022-11-06T18:13:07.842Z,3.00
2022-11-06T18:15:57.854Z,3.00
2022-11-06T18:18:47.841Z,2.90
2022-11-06T18:21:37.225Z,3.30
2022-11-06T18:24:26.820Z,3.00
2022-11-06T18:27:16.320Z,3.00
2022-11-06T18:30:07.678Z,3.40
2022-11-06T18:32:57.332Z,2.90
2022-11-06T18:35:47.235Z,3.10
2022-11-06T18:38:37.611Z,2.90
2022-11-06T18:44:17.179Z,3.40
2022-11-06T18:47:06.689Z,2.70
2022-11-06T18:49:56.117Z,2.60
2022-11-06T18:52:57.629Z,2.80
2022-11-06T18:55:47.454Z,2.50
2022-11-06T18:58:37.635Z,3.40
2022-11-06T19:01:28.097Z,2.90
2022-11-06T19:04:18.024Z,3.00
2022-11-06T19:07:07.600Z,3.00
2022-11-06T19:09:57.272Z,3.00
2022-11-06T19:12:46.681Z,3.30
2022-11-06T19:15:36.557Z,2.70
2022-11-06T19:18:29.752Z,2.90
2022-11-06T19:21:19.264Z,3.40
2022-11-06T19:24:09.083Z,2.90
2022-11-06T19:26:58.607Z,3.20
2022-11-06T19:29:48.181Z,2.40
2022-11-06T19:32:37.660Z,2.70
2022-11-06T19:35:27.161Z,3.00
2022-11-06T19:38:16.528Z,3.30
2022-11-06T19:41:06.242Z,2.90
2022-11-06T19:43:56.131Z,2.50
2022-11-06T19:46:46.025Z,2.50
2022-11-06T19:49:35.434Z,2.60
2022-11-06T19:52:41.562Z,2.80
2022-11-06T19:55:32.906Z,5.40
2022-11-06T19:58:22.973Z,3.40
2022-11-06T20:01:13.554Z,2.80
2022-11-06T20:04:03.133Z,2.10
2022-11-06T20:06:52.724Z,2.90
2022-11-06T20:09:42.188Z,1.90
2022-11-06T20:12:31.924Z,2.30
2022-11-06T20:15:24.135Z,2.90
2022-11-06T20:18:13.934Z,2.80
2022-11-06T20:21:05.578Z,2.80
2022-11-06T20:23:55.651Z,2.50
2022-11-06T20:26:45.184Z,2.50
2022-11-06T20:29:34.647Z,3.10
2022-11-06T20:32:24.280Z,3.10
2022-11-06T20:35:16.434Z,2.80
2022-11-06T20:38:06.310Z,3.20
2022-11-06T20:40:56.589Z,3.50
2022-11-06T20:43:46.614Z,3.80
2022-11-06T20:46:36.633Z,2.30
2022-11-06T20:49:29.625Z,3.50
2022-11-06T20:52:21.220Z,3.20
2022-11-06T20:55:11.426Z,3.00
2022-11-06T20:58:01.026Z,3.50
2022-11-06T21:00:50.516Z,3.00
2022-11-06T21:03:41.306Z,2.50
2022-11-06T21:06:32.517Z,3.20
2022-11-06T21:09:23.369Z,3.40
2022-11-06T21:12:12.902Z,3.10
2022-11-06T21:15:02.694Z,2.70
2022-11-06T21:17:53.685Z,2.50
2022-11-06T21:20:43.199Z,3.70
2022-11-06T21:23:32.606Z,2.80
2022-11-06T21:26:25.966Z,3.30
2022-11-06T21:29:15.068Z,3.40
2022-11-06T21:32:05.070Z,3.00
2022-11-06T21:34:55.965Z,2.60
2022-11-06T21:37:45.531Z,2.30
2022-11-06T21:40:35.580Z,2.90
2022-11-06T21:43:33.630Z,2.80
2022-11-06T21:46:23.006Z,2.60
2022-11-06T21:49:13.068Z,2.60
2022-11-06T21:52:17.079Z,2.70
2022-11-06T21:55:32.702Z,2.60
2022-11-06T21:58:22.555Z,2.10
2022-11-06T22:01:12.237Z,2.30
2022-11-06T22:04:02.174Z,2.70
2022-11-06T22:06:54.282Z,3.00
2022-11-06T22:09:43.378Z,2.50
2022-11-06T22:12:35.608Z,2.20
2022-11-06T22:15:25.311Z,2.20
2022-11-06T22:18:15.320Z,2.40
2022-11-06T22:21:10.491Z,1.90
2022-11-06T22:24:00.142Z,1.90
2022-11-06T22:26:49.777Z,2.00
2022-11-06T22:29:43.268Z,2.30
2022-11-06T22:32:32.965Z,2.40
2022-11-06T22:35:22.557Z,2.40
2022-11-06T22:38:12.224Z,2.90
2022-11-06T22:41:03.253Z,2.10
2022-11-06T22:43:57.639Z,2.10
2022-11-06T22:46:47.096Z,2.00
2022-11-06T22:49:36.911Z,1.90
2022-11-06T22:52:27.381Z,2.10
2022-11-06T22:58:05.616Z,2.30
2022-11-06T23:00:56.578Z,2.00
2022-11-06T23:03:46.200Z,2.00
2022-11-06T23:06:36.315Z,2.20
2022-11-06T23:09:26.113Z,1.90
2022-11-06T23:12:15.643Z,2.20
2022-11-06T23:15:07.251Z,1.70
2022-11-06T23:17:56.725Z,2.30
2022-11-06T23:20:46.405Z,2.40
2022-11-06T23:23:35.900Z,2.00
2022-11-06T23:26:25.363Z,2.20
2022-11-06T23:29:14.886Z,2.70
2022-11-06T23:32:04.710Z,2.70
2022-11-06T23:34:54.342Z,2.40
2022-11-06T23:37:44.205Z,2.20
2022-11-06T23:40:33.822Z,2.60
2022-11-06T23:43:23.317Z,3.20
2022-11-06T23:46:19.676Z,2.40
2022-11-06T23:49:08.723Z,2.40
2022-11-06T23:51:58.618Z,3.00
2022-11-06T23:54:48.419Z,2.20
2022-11-06T23:57:38.176Z,2.70
